sensor_id;sensor_type;location;lat;lon;timestamp;pressure;altitude;pressure_sealevel;temperature;humidity
13314;BME280;6725;48.112;11.604;2023-03-01T00:01:05;95778.88;;;1.39;100.00
13314;BME280;6725;48.112;11.604;2023-03-01T00:03:31;95780.44;;;1.40;100.00
13314;BME280;6725;48.112;11.604;2023-03-01T00:05:57;95771.00;;;1.34;100.00
13314;BME280;6725;48.112;11.604;2023-03-01T00:08:23;95763.63;;;1.43;100.00
13314;BME280;6725;48.112;11.604;2023-03-01T00:10:48;95763.16;;;1.29;100.00
13314;BME280;6725;48.112;11.604;2023-03-01T00:13:13;95761.03;;;1.35;100.00
13314;BME280;6725;48.112;11.604;2023-03-01T00:15:39;95761.81;;;1.35;100.00
13314;BME280;6725;48.112;11.604;2023-03-01T00:18:07;95758.78;;;1.37;100.00
13314;BME280;6725;48.112;11.604;2023-03-01T00:20:33;95763.41;;;1.36;100.00
13314;BME280;6725;48.112;11.604;2023-03-01T00:22:59;95770.34;;;1.37;100.00
13314;BME280;6725;48.112;11.604;2023-03-01T00:25:24;95757.78;;;1.29;100.00
13314;BME280;6725;48.112;11.604;2023-03-01T00:27:49;95765.84;;;1.41;100.00
13314;BME280;6725;48.112;11.604;2023-03-01T00:30:15;95760.03;;;1.39;100.00
13314;BME280;6725;48.112;11.604;2023-03-01T00:32:41;95758.03;;;1.36;100.00
13314;BME280;6725;48.112;11.604;2023-03-01T00:35:06;95756.66;;;1.42;100.00
13314;BME280;6725;48.112;11.604;2023-03-01T00:37:32;95751.97;;;1.39;100.00
13314;BME280;6725;48.112;11.604;2023-03-01T00:39:57;95749.94;;;1.36;100.00
13314;BME280;6725;48.112;11.604;2023-03-01T00:42:22;95752.06;;;1.43;100.00
13314;BME280;6725;48.112;11.604;2023-03-01T00:44:48;95755.09;;;1.29;100.00
13314;BME280;6725;48.112;11.604;2023-03-01T00:47:13;95752.50;;;1.33;100.00
13314;BME280;6725;48.112;11.604;2023-03-01T00:49:39;95751.97;;;1.39;100.00
13314;BME280;6725;48.112;11.604;2023-03-01T00:52:05;95746.47;;;1.36;100.00
13314;BME280;6725;48.112;11.604;2023-03-01T00:54:30;95745.47;;;1.40;100.00
13314;BME280;6725;48.112;11.604;2023-03-01T00:56:56;95733.59;;;1.29;100.00
13314;BME280;6725;48.112;11.604;2023-03-01T00:59:21;95744.78;;;1.31;100.00
13314;BME280;6725;48.112;11.604;2023-03-01T01:01:46;95730.22;;;1.32;100.00
13314;BME280;6725;48.112;11.604;2023-03-01T01:04:12;95731.09;;;1.24;100.00
13314;BME280;6725;48.112;11.604;2023-03-01T01:06:44;95722.16;;;1.32;100.00
13314;BME280;6725;48.112;11.604;2023-03-01T01:09:13;95723.25;;;1.31;100.00
13314;BME280;6725;48.112;11.604;2023-03-01T01:11:46;95724.50;;;1.34;100.00
13314;BME280;6725;48.112;11.604;2023-03-01T01:14:12;95728.22;;;1.29;100.00
13314;BME280;6725;48.112;11.604;2023-03-01T01:16:38;95717.00;;;1.27;100.00
13314;BME280;6725;48.112;11.604;2023-03-01T01:19:03;95716.09;;;1.23;100.00
13314;BME280;6725;48.112;11.604;2023-03-01T01:21:29;95710.03;;;1.26;100.00
13314;BME280;6725;48.112;11.604;2023-03-01T01:23:54;95710.84;;;1.27;100.00
13314;BME280;6725;48.112;11.604;2023-03-01T01:26:25;95709.59;;;1.36;100.00
13314;BME280;6725;48.112;11.604;2023-03-01T01:28:51;95720.25;;;1.21;100.00
13314;BME280;6725;48.112;11.604;2023-03-01T01:31:18;95709.59;;;1.24;100.00
13314;BME280;6725;48.112;11.604;2023-03-01T01:33:44;95702.22;;;1.21;100.00
13314;BME280;6725;48.112;11.604;2023-03-01T01:36:10;95698.16;;;1.15;100.00
13314;BME280;6725;48.112;11.604;2023-03-01T01:38:36;95696.47;;;1.11;100.00
13314;BME280;6725;48.112;11.604;2023-03-01T01:41:03;95701.28;;;1.17;100.00
13314;BME280;6725;48.112;11.604;2023-03-01T01:43:32;95695.16;;;1.17;100.00
13314;BME280;6725;48.112;11.604;2023-03-01T01:46:15;95687.97;;;1.21;100.00
13314;BME280;6725;48.112;11.604;2023-03-01T01:48:44;95683.94;;;1.15;100.00
13314;BME280;6725;48.112;11.604;2023-03-01T01:51:19;95681.25;;;1.15;100.00
13314;BME280;6725;48.112;11.604;2023-03-01T01:53:53;95673.72;;;1.20;100.00
13314;BME280;6725;48.112;11.604;2023-03-01T01:56:21;95675.19;;;1.18;100.00
13314;BME280;6725;48.112;11.604;2023-03-01T01:58:49;95678.88;;;1.13;100.00
13314;BME280;6725;48.112;11.604;2023-03-01T02:01:15;95677.00;;;1.14;100.00
13314;BME280;6725;48.112;11.604;2023-03-01T02:03:43;95674.75;;;1.16;100.00
13314;BME280;6725;48.112;11.604;2023-03-01T02:08:37;95666.56;;;1.12;100.00
13314;BME280;6725;48.112;11.604;2023-03-01T02:11:03;95667.13;;;1.06;100.00
13314;BME280;6725;48.112;11.604;2023-03-01T02:13:31;95667.22;;;1.09;100.00
13314;BME280;6725;48.112;11.604;2023-03-01T02:15:57;95664.56;;;1.09;100.00
13314;BME280;6725;48.112;11.604;2023-03-01T02:18:23;95665.69;;;1.08;100.00
13314;BME280;6725;48.112;11.604;2023-03-01T02:23:30;95661.84;;;1.09;100.00
13314;BME280;6725;48.112;11.604;2023-03-01T02:28:31;95654.81;;;1.05;100.00
13314;BME280;6725;48.112;11.604;2023-03-01T02:30:57;95655.13;;;0.91;100.00
13314;BME280;6725;48.112;11.604;2023-03-01T02:33:42;95662.88;;;1.05;100.00
13314;BME280;6725;48.112;11.604;2023-03-01T02:36:16;95661.53;;;0.99;100.00
13314;BME280;6725;48.112;11.604;2023-03-01T02:38:42;95653.13;;;0.88;100.00
13314;BME280;6725;48.112;11.604;2023-03-01T02:41:11;95658.28;;;0.93;100.00
13314;BME280;6725;48.112;11.604;2023-03-01T02:43:38;95657.50;;;0.93;100.00
13314;BME280;6725;48.112;11.604;2023-03-01T02:46:24;95652.47;;;1.03;100.00
13314;BME280;6725;48.112;11.604;2023-03-01T02:48:55;95651.78;;;1.06;100.00
13314;BME280;6725;48.112;11.604;2023-03-01T02:51:42;95651.78;;;0.94;100.00
13314;BME280;6725;48.112;11.604;2023-03-01T02:56:39;95653.13;;;1.00;100.00
13314;BME280;6725;48.112;11.604;2023-03-01T02:59:06;95653.38;;;1.07;100.00
13314;BME280;6725;48.112;11.604;2023-03-01T03:01:31;95660.50;;;0.91;100.00
13314;BME280;6725;48.112;11.604;2023-03-01T03:04:09;95657.16;;;0.82;100.00
13314;BME280;6725;48.112;11.604;2023-03-01T03:06:36;95660.75;;;0.86;100.00
13314;BME280;6725;48.112;11.604;2023-03-01T03:09:03;95660.16;;;0.81;100.00
13314;BME280;6725;48.112;11.604;2023-03-01T03:11:29;95662.75;;;0.89;100.00
13314;BME280;6725;48.112;11.604;2023-03-01T03:13:55;95666.13;;;0.86;100.00
13314;BME280;6725;48.112;11.604;2023-03-01T03:16:21;95668.22;;;0.81;100.00
13314;BME280;6725;48.112;11.604;2023-03-01T03:18:47;95654.47;;;0.82;100.00
13314;BME280;6725;48.112;11.604;2023-03-01T03:21:13;95655.03;;;0.88;100.00
13314;BME280;6725;48.112;11.604;2023-03-01T03:23:39;95662.28;;;0.87;100.00
13314;BME280;6725;48.112;11.604;2023-03-01T03:26:05;95667.91;;;0.82;100.00
13314;BME280;6725;48.112;11.604;2023-03-01T03:28:34;95650.41;;;0.76;100.00
13314;BME280;6725;48.112;11.604;2023-03-01T03:31:00;95660.63;;;0.83;100.00
13314;BME280;6725;48.112;11.604;2023-03-01T03:33:32;95655.59;;;0.81;100.00
13314;BME280;6725;48.112;11.604;2023-03-01T03:35:57;95652.44;;;0.79;100.00
13314;BME280;6725;48.112;11.604;2023-03-01T03:38:23;95651.09;;;0.73;100.00
13314;BME280;6725;48.112;11.604;2023-03-01T03:41:00;95640.56;;;0.80;100.00
13314;BME280;6725;48.112;11.604;2023-03-01T03:43:28;95645.28;;;0.71;100.00
13314;BME280;6725;48.112;11.604;2023-03-01T03:45:54;95639.25;;;0.74;100.00
13314;BME280;6725;48.112;11.604;2023-03-01T03:48:20;95644.16;;;0.72;100.00
13314;BME280;6725;48.112;11.604;2023-03-01T03:50:55;95641.47;;;0.72;100.00
13314;BME280;6725;48.112;11.604;2023-03-01T03:53:23;95637.22;;;0.71;100.00
13314;BME280;6725;48.112;11.604;2023-03-01T03:55:48;95631.59;;;0.64;100.00
13314;BME280;6725;48.112;11.604;2023-03-01T03:58:18;95631.38;;;0.69;100.00
13314;BME280;6725;48.112;11.604;2023-03-01T04:00:45;95619.72;;;0.65;100.00
13314;BME280;6725;48.112;11.604;2023-03-01T04:03:13;95625.19;;;0.57;100.00
13314;BME280;6725;48.112;11.604;2023-03-01T04:05:40;95624.44;;;0.68;100.00
13314;BME280;6725;48.112;11.604;2023-03-01T04:08:06;95610.91;;;0.65;100.00
13314;BME280;6725;48.112;11.604;2023-03-01T04:10:41;95610.69;;;0.70;100.00
13314;BME280;6725;48.112;11.604;2023-03-01T04:13:08;95620.28;;;0.59;100.00
13314;BME280;6725;48.112;11.604;2023-03-01T04:15:35;95617.03;;;0.53;100.00
13314;BME280;6725;48.112;11.604;2023-03-01T04:18:01;95613.69;;;0.56;100.00
13314;BME280;6725;48.112;11.604;2023-03-01T04:20:30;95610.78;;;0.49;100.00
13314;BME280;6725;48.112;11.604;2023-03-01T04:23:13;95612.34;;;0.50;100.00
13314;BME280;6725;48.112;11.604;2023-03-01T04:25:45;95613.47;;;0.49;100.00
13314;BME280;6725;48.112;11.604;2023-03-01T04:28:11;95617.03;;;0.53;100.00
13314;BME280;6725;48.112;11.604;2023-03-01T04:30:38;95610.09;;;0.52;100.00
13314;BME280;6725;48.112;11.604;2023-03-01T04:33:08;95614.78;;;0.43;100.00
13314;BME280;6725;48.112;11.604;2023-03-01T04:35:36;95609.22;;;0.48;100.00
13314;BME280;6725;48.112;11.604;2023-03-01T04:38:02;95605.16;;;0.42;100.00
13314;BME280;6725;48.112;11.604;2023-03-01T04:40:27;95615.91;;;0.42;100.00
13314;BME280;6725;48.112;11.604;2023-03-01T04:42:52;95613.06;;;0.27;100.00
13314;BME280;6725;48.112;11.604;2023-03-01T04:45:18;95602.22;;;0.23;100.00
13314;BME280;6725;48.112;11.604;2023-03-01T04:47:45;95599.06;;;0.21;100.00
13314;BME280;6725;48.112;11.604;2023-03-01T04:50:14;95598.56;;;0.28;100.00
13314;BME280;6725;48.112;11.604;2023-03-01T04:52:40;95599.66;;;0.27;100.00
13314;BME280;6725;48.112;11.604;2023-03-01T04:55:05;95598.16;;;0.17;100.00
13314;BME280;6725;48.112;11.604;2023-03-01T04:57:31;95592.81;;;0.17;100.00
13314;BME280;6725;48.112;11.604;2023-03-01T04:59:57;95588.09;;;0.14;100.00
13314;BME280;6725;48.112;11.604;2023-03-01T05:02:22;95595.72;;;0.12;100.00
13314;BME280;6725;48.112;11.604;2023-03-01T05:04:47;95590.22;;;0.08;100.00
13314;BME280;6725;48.112;11.604;2023-03-01T05:07:13;95590.75;;;0.02;100.00
13314;BME280;6725;48.112;11.604;2023-03-01T05:09:45;95596.69;;;0.08;100.00
13314;BME280;6725;48.112;11.604;2023-03-01T05:12:12;95577.81;;;0.04;100.00
13314;BME280;6725;48.112;11.604;2023-03-01T05:14:37;95586.94;;;0.03;100.00
13314;BME280;6725;48.112;11.604;2023-03-01T05:17:03;95583.06;;;0.13;100.00
13314;BME280;6725;48.112;11.604;2023-03-01T05:19:29;95575.06;;;-0.08;100.00
13314;BME280;6725;48.112;11.604;2023-03-01T05:21:56;95572.84;;;-0.06;100.00
13314;BME280;6725;48.112;11.604;2023-03-01T05:24:30;95569.38;;;-0.07;100.00
13314;BME280;6725;48.112;11.604;2023-03-01T05:26:56;95573.25;;;-0.16;100.00
13314;BME280;6725;48.112;11.604;2023-03-01T05:29:23;95564.78;;;-0.18;100.00
13314;BME280;6725;48.112;11.604;2023-03-01T05:31:56;95571.69;;;-0.17;100.00
13314;BME280;6725;48.112;11.604;2023-03-01T05:34:33;95574.81;;;-0.15;100.00
13314;BME280;6725;48.112;11.604;2023-03-01T05:37:01;95570.53;;;-0.28;100.00
13314;BME280;6725;48.112;11.604;2023-03-01T05:39:28;95566.63;;;-0.31;100.00
13314;BME280;6725;48.112;11.604;2023-03-01T05:42:00;95561.13;;;-0.34;100.00
13314;BME280;6725;48.112;11.604;2023-03-01T05:44:27;95555.22;;;-0.28;100.00
13314;BME280;6725;48.112;11.604;2023-03-01T05:46:52;95560.38;;;-0.23;100.00
13314;BME280;6725;48.112;11.604;2023-03-01T05:49:18;95552.09;;;-0.30;100.00
13314;BME280;6725;48.112;11.604;2023-03-01T05:51:48;95560.00;;;-0.33;100.00
13314;BME280;6725;48.112;11.604;2023-03-01T05:54:13;95551.53;;;-0.23;100.00
13314;BME280;6725;48.112;11.604;2023-03-01T05:56:39;95547.31;;;-0.24;100.00
13314;BME280;6725;48.112;11.604;2023-03-01T05:59:05;95552.66;;;-0.24;100.00
13314;BME280;6725;48.112;11.604;2023-03-01T06:01:31;95557.13;;;-0.28;100.00
13314;BME280;6725;48.112;11.604;2023-03-01T06:03:57;95559.34;;;-0.30;100.00
13314;BME280;6725;48.112;11.604;2023-03-01T06:06:23;95573.53;;;-0.30;100.00
13314;BME280;6725;48.112;11.604;2023-03-01T06:08:49;95570.63;;;-0.37;100.00
13314;BME280;6725;48.112;11.604;2023-03-01T06:11:14;95567.47;;;-0.39;100.00
13314;BME280;6725;48.112;11.604;2023-03-01T06:13:44;95573.88;;;-0.31;100.00
13314;BME280;6725;48.112;11.604;2023-03-01T06:16:10;95567.59;;;-0.35;100.00
13314;BME280;6725;48.112;11.604;2023-03-01T06:18:37;95566.97;;;-0.20;100.00
13314;BME280;6725;48.112;11.604;2023-03-01T06:21:03;95567.53;;;-0.27;100.00
13314;BME280;6725;48.112;11.604;2023-03-01T06:23:28;95564.53;;;-0.25;100.00
13314;BME280;6725;48.112;11.604;2023-03-01T06:25:53;95570.06;;;-0.30;100.00
13314;BME280;6725;48.112;11.604;2023-03-01T06:28:19;95571.72;;;-0.38;100.00
13314;BME280;6725;48.112;11.604;2023-03-01T06:30:45;95572.31;;;-0.32;100.00
13314;BME280;6725;48.112;11.604;2023-03-01T06:33:11;95571.84;;;-0.34;100.00
13314;BME280;6725;48.112;11.604;2023-03-01T06:35:36;95579.72;;;-0.29;100.00
13314;BME280;6725;48.112;11.604;2023-03-01T06:38:03;95573.66;;;-0.26;100.00
13314;BME280;6725;48.112;11.604;2023-03-01T06:40:30;95586.88;;;-0.21;100.00
13314;BME280;6725;48.112;11.604;2023-03-01T06:42:56;95576.66;;;-0.28;100.00
13314;BME280;6725;48.112;11.604;2023-03-01T06:45:22;95574.81;;;-0.15;100.00
13314;BME280;6725;48.112;11.604;2023-03-01T06:47:47;95579.34;;;-0.28;100.00
13314;BME280;6725;48.112;11.604;2023-03-01T06:50:15;95575.66;;;-0.35;100.00
13314;BME280;6725;48.112;11.604;2023-03-01T06:52:41;95571.66;;;-0.29;100.00
13314;BME280;6725;48.112;11.604;2023-03-01T06:55:07;95574.81;;;-0.15;100.00
13314;BME280;6725;48.112;11.604;2023-03-01T06:57:32;95587.13;;;-0.14;100.00
13314;BME280;6725;48.112;11.604;2023-03-01T06:59:58;95589.50;;;-0.33;100.00
13314;BME280;6725;48.112;11.604;2023-03-01T07:02:23;95576.34;;;-0.26;100.00
13314;BME280;6725;48.112;11.604;2023-03-01T07:04:50;95586.75;;;-0.25;100.00
13314;BME280;6725;48.112;11.604;2023-03-01T07:07:15;95584.38;;;-0.26;100.00
13314;BME280;6725;48.112;11.604;2023-03-01T07:09:43;95586.81;;;-0.13;100.00
13314;BME280;6725;48.112;11.604;2023-03-01T07:12:09;95591.72;;;-0.15;100.00
13314;BME280;6725;48.112;11.604;2023-03-01T07:14:34;95586.03;;;-0.01;100.00
13314;BME280;6725;48.112;11.604;2023-03-01T07:16:59;95579.13;;;-0.02;100.00
13314;BME280;6725;48.112;11.604;2023-03-01T07:19:25;95579.13;;;-0.02;100.00
13314;BME280;6725;48.112;11.604;2023-03-01T07:21:50;95575.34;;;0.11;100.00
13314;BME280;6725;48.112;11.604;2023-03-01T07:24:17;95581.50;;;0.12;100.00
13314;BME280;6725;48.112;11.604;2023-03-01T07:26:42;95575.69;;;0.10;100.00
13314;BME280;6725;48.112;11.604;2023-03-01T07:29:09;95586.13;;;-0.10;100.00
13314;BME280;6725;48.112;11.604;2023-03-01T07:31:35;95576.22;;;0.03;100.00
13314;BME280;6725;48.112;11.604;2023-03-01T07:34:00;95583.16;;;0.04;100.00
13314;BME280;6725;48.112;11.604;2023-03-01T07:36:26;95585.38;;;0.02;100.00
13314;BME280;6725;48.112;11.604;2023-03-01T07:38:52;95579.59;;;0.00;100.00
13314;BME280;6725;48.112;11.604;2023-03-01T07:41:17;95578.47;;;0.13;100.00
13314;BME280;6725;48.112;11.604;2023-03-01T07:43:42;95572.22;;;0.21;100.00
13314;BME280;6725;48.112;11.604;2023-03-01T07:46:08;95577.06;;;0.28;100.00
13314;BME280;6725;48.112;11.604;2023-03-01T07:48:34;95582.97;;;0.21;100.00
13314;BME280;6725;48.112;11.604;2023-03-01T07:51:00;95576.50;;;0.22;100.00
13314;BME280;6725;48.112;11.604;2023-03-01T07:53:26;95587.91;;;0.19;100.00
13314;BME280;6725;48.112;11.604;2023-03-01T07:56:06;95581.41;;;0.20;100.00
13314;BME280;6725;48.112;11.604;2023-03-01T07:58:35;95581.16;;;0.13;100.00
13314;BME280;6725;48.112;11.604;2023-03-01T08:01:02;95574.66;;;0.14;100.00
13314;BME280;6725;48.112;11.604;2023-03-01T08:03:27;95582.53;;;0.31;100.00
13314;BME280;6725;48.112;11.604;2023-03-01T08:05:53;95578.06;;;0.35;100.00
13314;BME280;6725;48.112;11.604;2023-03-01T08:08:18;95577.19;;;0.43;100.00
13314;BME280;6725;48.112;11.604;2023-03-01T08:10:43;95571.47;;;0.57;100.00
13314;BME280;6725;48.112;11.604;2023-03-01T08:13:09;95578.97;;;0.51;100.00
13314;BME280;6725;48.112;11.604;2023-03-01T08:15:34;95579.78;;;0.64;100.00
13314;BME280;6725;48.112;11.604;2023-03-01T08:17:59;95577.97;;;0.68;100.00
13314;BME280;6725;48.112;11.604;2023-03-01T08:20:25;95585.84;;;0.61;100.00
13314;BME280;6725;48.112;11.604;2023-03-01T08:22:51;95578.09;;;0.59;100.00
13314;BME280;6725;48.112;11.604;2023-03-01T08:25:16;95580.13;;;0.74;100.00
13314;BME280;6725;48.112;11.604;2023-03-01T08:27:42;95583.25;;;0.64;100.00
13314;BME280;6725;48.112;11.604;2023-03-01T08:30:07;95589.75;;;0.87;100.00
13314;BME280;6725;48.112;11.604;2023-03-01T08:32:38;95581.91;;;0.70;100.00
13314;BME280;6725;48.112;11.604;2023-03-01T08:35:04;95589.84;;;0.67;100.00
13314;BME280;6725;48.112;11.604;2023-03-01T08:37:29;95575.19;;;0.88;100.00
13314;BME280;6725;48.112;11.604;2023-03-01T08:39:58;95580.66;;;1.04;100.00
13314;BME280;6725;48.112;11.604;2023-03-01T08:42:23;95571.72;;;0.76;100.00
13314;BME280;6725;48.112;11.604;2023-03-01T08:44:48;95567.56;;;0.90;100.00
13314;BME280;6725;48.112;11.604;2023-03-01T08:47:14;95571.00;;;1.27;100.00
13314;BME280;6725;48.112;11.604;2023-03-01T08:49:39;95568.66;;;1.25;100.00
13314;BME280;6725;48.112;11.604;2023-03-01T08:52:04;95570.03;;;0.95;100.00
13314;BME280;6725;48.112;11.604;2023-03-01T08:54:30;95571.88;;;1.31;100.00
13314;BME280;6725;48.112;11.604;2023-03-01T08:56:55;95578.25;;;1.38;100.00
13314;BME280;6725;48.112;11.604;2023-03-01T08:59:20;95570.16;;;1.50;100.00
13314;BME280;6725;48.112;11.604;2023-03-01T09:01:46;95563.91;;;1.34;100.00
13314;BME280;6725;48.112;11.604;2023-03-01T09:04:12;95583.75;;;1.42;100.00
13314;BME280;6725;48.112;11.604;2023-03-01T09:06:38;95570.63;;;1.40;100.00
13314;BME280;6725;48.112;11.604;2023-03-01T09:09:04;95578.44;;;1.45;100.00
13314;BME280;6725;48.112;11.604;2023-03-01T09:11:30;95583.66;;;1.26;100.00
13314;BME280;6725;48.112;11.604;2023-03-01T09:13:56;95577.28;;;1.31;100.00
13314;BME280;6725;48.112;11.604;2023-03-01T09:16:22;95572.41;;;1.48;100.00
13314;BME280;6725;48.112;11.604;2023-03-01T09:18:50;95571.94;;;1.46;100.00
13314;BME280;6725;48.112;11.604;2023-03-01T09:21:17;95567.41;;;1.35;100.00
13314;BME280;6725;48.112;11.604;2023-03-01T09:23:44;95570.16;;;1.38;100.00
13314;BME280;6725;48.112;11.604;2023-03-01T09:26:21;95559.69;;;1.61;100.00
13314;BME280;6725;48.112;11.604;2023-03-01T09:28:48;95568.19;;;1.63;100.00
13314;BME280;6725;48.112;11.604;2023-03-01T09:31:15;95565.53;;;1.51;100.00
13314;BME280;6725;48.112;11.604;2023-03-01T09:33:41;95560.84;;;1.48;100.00
13314;BME280;6725;48.112;11.604;2023-03-01T09:36:12;95565.00;;;1.73;100.00
13314;BME280;6725;48.112;11.604;2023-03-01T09:38:38;95569.66;;;1.60;100.00
13314;BME280;6725;48.112;11.604;2023-03-01T09:41:10;95576.31;;;1.51;100.00
13314;BME280;6725;48.112;11.604;2023-03-01T09:43:52;95560.66;;;1.68;100.00
13314;BME280;6725;48.112;11.604;2023-03-01T09:46:21;95553.44;;;1.84;100.00
13314;BME280;6725;48.112;11.604;2023-03-01T09:48:57;95563.06;;;1.85;100.00
13314;BME280;6725;48.112;11.604;2023-03-01T09:51:33;95563.00;;;1.97;100.00
13314;BME280;6725;48.112;11.604;2023-03-01T09:54:02;95566.94;;;1.72;100.00
13314;BME280;6725;48.112;11.604;2023-03-01T09:56:33;95567.00;;;2.03;100.00
13314;BME280;6725;48.112;11.604;2023-03-01T09:59:20;95568.38;;;1.97;100.00
13314;BME280;6725;48.112;11.604;2023-03-01T10:02:03;95567.56;;;1.81;100.00
13314;BME280;6725;48.112;11.604;2023-03-01T10:05:03;95565.66;;;1.82;100.00
13314;BME280;6725;48.112;11.604;2023-03-01T10:09:59;95562.56;;;1.95;100.00
13314;BME280;6725;48.112;11.604;2023-03-01T10:12:28;95564.88;;;1.81;100.00
13314;BME280;6725;48.112;11.604;2023-03-01T10:15:01;95555.44;;;1.87;100.00
13314;BME280;6725;48.112;11.604;2023-03-01T10:17:49;95552.44;;;1.77;100.00
13314;BME280;6725;48.112;11.604;2023-03-01T10:20:21;95553.56;;;1.76;100.00
13314;BME280;6725;48.112;11.604;2023-03-01T10:22:47;95543.22;;;2.05;100.00
13314;BME280;6725;48.112;11.604;2023-03-01T10:25:28;95558.88;;;2.15;100.00
13314;BME280;6725;48.112;11.604;2023-03-01T10:30:46;95549.78;;;1.92;100.00
13314;BME280;6725;48.112;11.604;2023-03-01T10:33:21;95545.75;;;2.29;100.00
13314;BME280;6725;48.112;11.604;2023-03-01T10:35:47;95560.56;;;2.35;100.00
13314;BME280;6725;48.112;11.604;2023-03-01T10:38:14;95569.50;;;2.70;100.00
13314;BME280;6725;48.112;11.604;2023-03-01T10:41:09;95555.59;;;2.68;100.00
13314;BME280;6725;48.112;11.604;2023-03-01T10:43:50;95557.84;;;2.97;100.00
13314;BME280;6725;48.112;11.604;2023-03-01T10:46:33;95548.13;;;3.12;100.00
13314;BME280;6725;48.112;11.604;2023-03-01T10:49:17;95550.88;;;3.31;100.00
13314;BME280;6725;48.112;11.604;2023-03-01T10:51:45;95542.16;;;3.57;100.00
13314;BME280;6725;48.112;11.604;2023-03-01T10:57:01;95536.25;;;4.31;100.00
13314;BME280;6725;48.112;11.604;2023-03-01T11:04:35;95528.53;;;4.52;100.00
13314;BME280;6725;48.112;11.604;2023-03-01T11:07:01;95522.94;;;4.90;100.00
13314;BME280;6725;48.112;11.604;2023-03-01T11:09:32;95515.41;;;5.58;100.00
13314;BME280;6725;48.112;11.604;2023-03-01T11:12:04;95522.31;;;5.26;100.00
13314;BME280;6725;48.112;11.604;2023-03-01T11:14:37;95513.25;;;4.63;100.00
13314;BME280;6725;48.112;11.604;2023-03-01T11:19:28;95502.81;;;4.39;100.00
13314;BME280;6725;48.112;11.604;2023-03-01T11:22:07;95498.31;;;4.46;100.00
13314;BME280;6725;48.112;11.604;2023-03-01T11:24:40;95482.91;;;4.73;100.00
13314;BME280;6725;48.112;11.604;2023-03-01T11:27:22;95487.53;;;4.50;100.00
13314;BME280;6725;48.112;11.604;2023-03-01T11:30:05;95492.06;;;4.20;100.00
13314;BME280;6725;48.112;11.604;2023-03-01T11:35:27;95485.38;;;4.14;100.00
13314;BME280;6725;48.112;11.604;2023-03-01T11:37:59;95473.50;;;3.96;100.00
13314;BME280;6725;48.112;11.604;2023-03-01T11:40:37;95463.78;;;4.62;100.00
13314;BME280;6725;48.112;11.604;2023-03-01T11:43:36;95455.94;;;4.54;100.00
13314;BME280;6725;48.112;11.604;2023-03-01T11:52:18;95469.84;;;4.07;100.00
13314;BME280;6725;48.112;11.604;2023-03-01T12:06:42;95451.16;;;4.44;100.00
13314;BME280;6725;48.112;11.604;2023-03-01T12:15:21;95440.91;;;4.08;100.00
13314;BME280;6725;48.112;11.604;2023-03-01T12:27:07;95420.38;;;4.52;100.00
13314;BME280;6725;48.112;11.604;2023-03-01T12:29:58;95417.13;;;4.43;100.00
13314;BME280;6725;48.112;11.604;2023-03-01T12:32:55;95413.22;;;4.37;100.00
13314;BME280;6725;48.112;11.604;2023-03-01T12:51:23;95408.88;;;4.32;100.00
13314;BME280;6725;48.112;11.604;2023-03-01T12:53:51;95411.81;;;4.46;100.00
13314;BME280;6725;48.112;11.604;2023-03-01T12:56:21;95405.47;;;4.35;100.00
13314;BME280;6725;48.112;11.604;2023-03-01T12:58:51;95407.81;;;4.37;100.00
13314;BME280;6725;48.112;11.604;2023-03-01T13:04:32;95402.69;;;4.58;100.00
13314;BME280;6725;48.112;11.604;2023-03-01T13:09:39;95395.84;;;4.64;100.00
13314;BME280;6725;48.112;11.604;2023-03-01T13:15:29;95399.13;;;4.80;100.00
13314;BME280;6725;48.112;11.604;2023-03-01T13:20:27;95404.75;;;4.94;100.00
13314;BME280;6725;48.112;11.604;2023-03-01T13:30:57;95389.50;;;5.08;100.00
13314;BME280;6725;48.112;11.604;2023-03-01T13:35:48;95406.44;;;4.76;100.00
13314;BME280;6725;48.112;11.604;2023-03-01T13:38:47;95379.72;;;4.71;100.00
13314;BME280;6725;48.112;11.604;2023-03-01T13:41:15;95369.94;;;4.92;100.00
13314;BME280;6725;48.112;11.604;2023-03-01T13:43:43;95380.94;;;5.06;100.00
13314;BME280;6725;48.112;11.604;2023-03-01T13:46:27;95377.22;;;5.18;100.00
13314;BME280;6725;48.112;11.604;2023-03-01T13:48:55;95382.03;;;5.31;100.00
13314;BME280;6725;48.112;11.604;2023-03-01T13:51:26;95380.50;;;5.34;100.00
13314;BME280;6725;48.112;11.604;2023-03-01T13:53:54;95377.34;;;5.28;100.00
13314;BME280;6725;48.112;11.604;2023-03-01T13:56:26;95370.53;;;5.41;100.00
13314;BME280;6725;48.112;11.604;2023-03-01T13:59:02;95371.28;;;5.38;100.00
13314;BME280;6725;48.112;11.604;2023-03-01T14:01:35;95381.28;;;5.34;100.00
13314;BME280;6725;48.112;11.604;2023-03-01T14:04:18;95368.84;;;5.30;100.00
13314;BME280;6725;48.112;11.604;2023-03-01T14:06:44;95371.31;;;5.42;100.00
13314;BME280;6725;48.112;11.604;2023-03-01T14:09:19;95369.94;;;5.22;100.00
13314;BME280;6725;48.112;11.604;2023-03-01T14:14:46;95365.75;;;5.28;100.00
13314;BME280;6725;48.112;11.604;2023-03-01T14:20:22;95361.53;;;5.30;100.00
13314;BME280;6725;48.112;11.604;2023-03-01T14:22:50;95349.31;;;5.47;100.00
13314;BME280;6725;48.112;11.604;2023-03-01T14:25:32;95346.88;;;5.35;100.00
13314;BME280;6725;48.112;11.604;2023-03-01T14:28:18;95336.44;;;5.37;100.00
13314;BME280;6725;48.112;11.604;2023-03-01T14:31:21;95330.44;;;5.54;100.00
13314;BME280;6725;48.112;11.604;2023-03-01T14:33:35;95336.09;;;5.42;100.00
13314;BME280;6725;48.112;11.604;2023-03-01T14:36:05;95332.00;;;5.55;100.00
13314;BME280;6725;48.112;11.604;2023-03-01T14:41:02;95333.63;;;5.63;100.00
13314;BME280;6725;48.112;11.604;2023-03-01T14:43:29;95334.72;;;5.58;100.00
13314;BME280;6725;48.112;11.604;2023-03-01T14:45:55;95329.84;;;5.74;100.00
13314;BME280;6725;48.112;11.604;2023-03-01T14:48:21;95324.81;;;5.73;100.00
13314;BME280;6725;48.112;11.604;2023-03-01T14:50:47;95319.88;;;5.82;100.00
13314;BME280;6725;48.112;11.604;2023-03-01T14:53:19;95338.34;;;5.73;100.00
13314;BME280;6725;48.112;11.604;2023-03-01T14:55:50;95319.13;;;5.81;100.00